MDT,Max TemperatureF,Mean TemperatureF,Min TemperatureF,Max Dew PointF,MeanDew PointF,Min DewpointF,Max Humidity, Mean Humidity, Min Humidity, Max Sea Level PressureIn, Mean Sea Level PressureIn, Min Sea Level PressureIn, Max VisibilityMiles, Mean VisibilityMiles, Min VisibilityMiles, Max Wind SpeedMPH, Mean Wind SpeedMPH, Max Gust SpeedMPH,PrecipitationIn, CloudCover, Events, WindDirDegrees
2013-10-1,73,54,34,41,35,31,100,62,23,29.97,29.87,29.78,10,10,10,28,8,36,0.00,1,,216
2013-10-2,58,48,38,35,32,29,85,61,36,30.07,29.91,29.79,10,10,10,20,10,24,0.00,1,,36
2013-10-3,46,39,31,43,37,30,100,80,60,30.01,29.88,29.81,10,6,0,25,12,31,1.54,8,Fog-Rain-Snow,6
2013-10-4,31,29,26,30,27,25,100,96,92,30.42,30.21,29.99,3,1,0,29,16,39,0.60,8,Fog-Snow,340
2013-10-5,36,28,19,27,24,17,85,77,69,30.39,30.35,30.29,10,10,10,28,14,31,0.02,0,,232
2013-10-6,48,42,35,34,31,27,75,68,60,30.35,30.28,30.17,10,10,10,26,17,31,0.00,0,,220
2013-10-7,65,55,44,37,34,31,65,50,34,30.16,29.95,29.77,10,10,10,28,17,36,0.00,0,,216
2013-10-8,70,55,39,37,34,30,85,56,26,29.84,29.71,29.62,10,10,10,31,16,37,0.00,0,,231
2013-10-9,53,43,33,38,34,31,89,72,54,30.01,29.94,29.86,10,10,10,26,11,31,T,1,,67
2013-10-10,57,45,32,43,38,30,96,78,59,29.88,29.70,29.55,10,9,4,15,6,22,0.25,4,Rain,312
2013-10-11,50,40,29,41,36,29,100,75,50,30.10,29.82,29.56,10,9,5,21,10,26,0.20,7,Rain,320
2013-10-12,54,39,24,35,29,22,100,69,38,30.18,30.11,30.05,10,10,10,15,4,20,0.00,0,,143
2013-10-13,57,44,31,43,38,30,100,78,55,30.12,30.03,29.94,10,6,0,20,5,24,0.15,5,Fog-Rain-Thunderstorm,15
2013-10-14,40,35,30,40,33,26,100,91,82,30.37,30.08,29.89,10,7,1,26,15,33,0.12,8,Rain-Snow,6
2013-10-15,36,32,28,27,26,24,92,78,64,30.43,30.33,30.23,10,9,4,18,6,47,0.01,7,Snow,265
2013-10-16,51,40,29,30,26,23,92,63,33,30.22,30.11,30.00,10,10,10,25,13,31,0.00,0,,227
2013-10-17,40,35,30,32,29,27,96,78,59,30.20,30.13,30.08,10,10,10,12,5,14,T,8,,13
2013-10-18,44,35,26,29,24,19,100,70,39,30.28,30.18,30.12,10,10,4,24,11,32,T,4,Snow,272
2013-10-19,59,46,33,32,27,23,76,52,28,30.07,29.97,29.87,10,10,10,24,10,29,0.00,1,,244
2013-10-20,49,38,26,36,33,26,100,75,50,30.18,30.04,29.88,10,10,6,21,7,26,0.14,6,Rain,302
2013-10-21,57,44,31,33,30,27,100,68,35,30.19,30.12,30.06,10,10,10,23,12,29,0.00,6,,260
2013-10-22,65,48,30,33,31,27,85,57,28,30.18,30.11,30.03,10,10,10,23,9,28,0.00,1,,241
2013-10-23,61,46,30,36,32,28,92,62,32,30.24,30.17,30.10,10,10,10,14,6,16,0.00,0,,335
2013-10-24,57,40,23,37,32,23,100,72,43,30.32,30.24,30.17,10,8,1,8,3,12,0.00,0,,53
2013-10-25,66,48,29,35,32,27,92,57,22,30.29,30.17,30.08,10,10,7,17,8,23,0.00,0,,270
2013-10-26,66,48,30,35,30,24,92,57,22,30.35,30.21,30.01,10,10,10,18,10,24,0.00,0,,241
2013-10-27,66,51,35,30,26,19,75,47,18,29.99,29.86,29.70,10,10,10,26,14,33,0.00,1,,250
2013-10-28,38,33,27,34,28,24,100,89,78,30.11,30.00,29.85,10,7,1,29,19,36,T,8,Snow,76
2013-10-29,46,35,24,30,26,24,92,73,53,30.06,29.98,29.87,10,9,5,16,6,24,0.00,5,,87
2013-10-30,49,37,25,29,27,24,100,73,45,29.90,29.84,29.78,10,7,0,22,11,28,0.00,4,Fog,244
2013-10-31,53,41,28,30,26,22,85,60,35,29.92,29.85,29.75,10,10,10,28,14,35,0.00,2,,253